Daydream Believer — V7XJ3 — position and weather

sailwx.info

Track history (hours):
 
Tides and Currents Weather Stations Pressure Air Temp Water Temp Dewpoint Dewpoint Depression Visibility Wind Speed Wind Dir Waves Ship Positions

Daydream Believer

Last reported at 2017-Jun-23 09:44 UTC. Time now 2017-Jun-27 12:21 UTC.
Position N 24°27' E 119°11'.

Length 178 m; draft 7.9 m.

Type: Ship. MMSI: 538004493.

Date/timePositionNaut miles runAvg speedWind from/ knotsBaromVisibWave heightAir tempDewpointWater temp
2017-Jun-23 09:44N 24°27' E 119°11'414.3
2017-Jun-23 09:29N 24°25' E 119°08'714.2
2017-Jun-23 09:00N 24°21' E 119°02'714.1
2017-Jun-23 08:30N 24°16' E 118°56'713.8
2017-Jun-23 08:01N 24°12' E 118°50'713.5
2017-Jun-23 07:30N 24°08' E 118°45'713.1
2017-Jun-23 07:00N 24°03' E 118°39'612.6
2017-Jun-23 06:30N 23°59' E 118°33'712.3
2017-Jun-23 05:55N 23°55' E 118°28'511.6
2017-Jun-23 05:31N 23°52' E 118°24'711.9
2017-Jun-23 04:53N 23°47' E 118°17'  
Track history (hours):
 
Tides and Currents Weather Stations Pressure Air Temp Water Temp Dewpoint Dewpoint Depression Visibility Wind Speed Wind Dir Waves Ship Positions

Daydream Believer

Last reported at 2017-Jun-23 09:44 UTC. Time now 2017-Jun-27 12:21 UTC.
Position N 24°27' E 119°11'.

Length 178 m; draft 7.9 m.

Type: Ship. MMSI: 538004493.

Date/timePositionNaut miles runAvg speedWind from/ knotsBaromVisibWave heightAir tempDewpointWater temp
2017-Jun-23 09:44N 24°27' E 119°11'414.3
2017-Jun-23 09:29N 24°25' E 119°08'714.2
2017-Jun-23 09:00N 24°21' E 119°02'714.1
2017-Jun-23 08:30N 24°16' E 118°56'713.8
2017-Jun-23 08:01N 24°12' E 118°50'713.5
2017-Jun-23 07:30N 24°08' E 118°45'713.1
2017-Jun-23 07:00N 24°03' E 118°39'612.6
2017-Jun-23 06:30N 23°59' E 118°33'712.3
2017-Jun-23 05:55N 23°55' E 118°28'511.6
2017-Jun-23 05:31N 23°52' E 118°24'711.9
2017-Jun-23 04:53N 23°47' E 118°17'  

Dump ship's entire track history